Time;durP1;ratioP1;P1;durP2;ratioP2;P2;SDS_P1;SDS_P2;PMS_P1;PMS_P2;Temp;Humidity;BMP_temperature;BMP_pressure;BME280_temperature;BME280_humidity;BME280_pressure;Samples;Min_cycle;Max_cycle;Signal;HPM_P1;HPM_P2
2021/12/29 00:01:41;;;;;;;12.43;4.15;;;7.40;99.90;;;;;;4935087;28;20132;-50
2021/12/29 00:04:06;;;;;;;14.20;4.75;;;7.50;99.90;;;;;;4992275;28;20490;-47
2021/12/29 00:06:32;;;;;;;10.32;4.05;;;7.40;99.90;;;;;;4985497;28;20105;-47
2021/12/29 00:08:59;;;;;;;14.50;4.70;;;7.40;99.90;;;;;;4965235;28;20034;-49
2021/12/29 00:11:25;;;;;;;14.30;5.03;;;7.40;99.90;;;;;;4973476;28;20039;-50
2021/12/29 00:13:50;;;;;;;14.75;4.60;;;7.40;99.90;;;;;;4972669;28;20043;-49
2021/12/29 00:16:16;;;;;;;14.57;4.57;;;7.40;99.90;;;;;;4973110;28;20041;-48
2021/12/29 00:18:42;;;;;;;12.82;4.47;;;7.40;99.90;;;;;;4984251;28;20042;-47
2021/12/29 00:21:08;;;;;;;16.02;5.07;;;7.40;99.90;;;;;;4974823;28;20125;-47
2021/12/29 00:23:34;;;;;;;12.98;4.75;;;7.50;99.90;;;;;;4992493;28;20038;-47
2021/12/29 00:26:00;;;;;;;17.83;5.38;;;7.50;99.90;;;;;;4992585;28;20046;-48
2021/12/29 00:28:26;;;;;;;12.73;4.80;;;7.50;99.90;;;;;;4960867;28;20410;-46
2021/12/29 00:30:52;;;;;;;16.60;5.07;;;7.50;99.90;;;;;;4965990;28;20042;-47
2021/12/29 00:33:18;;;;;;;15.57;5.10;;;7.50;99.90;;;;;;4955272;28;20035;-48
2021/12/29 00:35:44;;;;;;;16.58;5.22;;;7.50;99.90;;;;;;4971505;28;20075;-48
2021/12/29 00:38:10;;;;;;;25.75;7.15;;;7.50;99.90;;;;;;4975644;28;20565;-47
2021/12/29 00:40:38;;;;;;;19.90;6.03;;;7.50;99.90;;;;;;4951246;28;20112;-47
2021/12/29 00:43:05;;;;;;;27.38;6.55;;;7.40;99.90;;;;;;4945899;28;20495;-48
2021/12/29 00:45:34;;;;;;;27.77;6.57;;;7.40;99.90;;;;;;4958915;28;20094;-48
2021/12/29 00:48:00;;;;;;;29.33;7.57;;;7.40;99.90;;;;;;4968298;28;20035;-47
2021/12/29 00:50:26;;;;;;;27.13;7.63;;;7.50;99.90;;;;;;4958218;28;20035;-50
2021/12/29 00:52:52;;;;;;;30.42;8.88;;;7.40;99.90;;;;;;4971017;28;20038;-49
2021/12/29 00:55:18;;;;;;;48.97;8.80;;;7.40;99.90;;;;;;4943239;28;20388;-51
2021/12/29 00:57:44;;;;;;;38.38;8.50;;;7.40;99.90;;;;;;4950669;28;20411;-51
2021/12/29 01:00:14;;;;;;;41.47;8.90;;;7.50;99.90;;;;;;4976441;28;20444;-50
2021/12/29 01:02:40;;;;;;;37.15;8.85;;;7.40;99.90;;;;;;4975878;28;20051;-51
2021/12/29 01:05:07;;;;;;;39.10;8.93;;;7.40;99.90;;;;;;4968453;28;20042;-50
2021/12/29 01:07:33;;;;;;;45.42;9.70;;;7.40;99.90;;;;;;4976331;28;20050;-49
2021/12/29 01:09:59;;;;;;;37.75;9.15;;;7.40;99.90;;;;;;4976486;28;20042;-48
2021/12/29 01:12:25;;;;;;;48.45;9.40;;;7.50;99.90;;;;;;4975970;28;20050;-47
2021/12/29 01:14:56;;;;;;;52.33;10.48;;;7.50;99.90;;;;;;4976177;28;20050;-47
2021/12/29 01:17:23;;;;;;;42.15;9.48;;;7.50;99.90;;;;;;4976132;28;20043;-47
2021/12/29 01:19:50;;;;;;;51.80;10.27;;;7.50;99.90;;;;;;4958718;28;20697;-47
2021/12/29 01:22:16;;;;;;;50.05;9.82;;;7.40;99.90;;;;;;4975953;28;20067;-49
2021/12/29 01:24:46;;;;;;;48.50;9.57;;;7.50;99.90;;;;;;4972896;28;20074;-48
2021/12/29 01:27:13;;;;;;;57.15;10.77;;;7.50;99.90;;;;;;4972174;28;20078;-47
2021/12/29 01:29:38;;;;;;;44.42;10.23;;;7.50;99.90;;;;;;4975698;28;20468;-50
2021/12/29 01:32:04;;;;;;;45.08;9.52;;;7.50;99.90;;;;;;4975766;28;20408;-47
2021/12/29 01:34:30;;;;;;;30.85;7.85;;;7.50;99.90;;;;;;4975907;28;20042;-48
2021/12/29 01:36:56;;;;;;;32.92;8.18;;;7.50;99.90;;;;;;4975741;28;20045;-48
2021/12/29 01:39:22;;;;;;;29.88;8.13;;;7.50;99.90;;;;;;4975687;28;20508;-47
2021/12/29 01:41:50;;;;;;;30.25;8.20;;;7.50;99.90;;;;;;4975862;28;20177;-47
2021/12/29 01:44:23;;;;;;;26.63;7.18;;;7.50;99.90;;;;;;4971695;28;20039;-49
2021/12/29 01:46:50;;;;;;;26.55;6.63;;;7.50;99.90;;;;;;4988125;28;20042;-49
2021/12/29 01:49:15;;;;;;;25.95;6.65;;;7.50;99.90;;;;;;4978977;28;20042;-51
2021/12/29 01:51:48;;;;;;;23.30;7.30;;;7.50;99.90;;;;;;4973165;28;20034;-48
2021/12/29 01:54:24;;;;;;;30.40;8.07;;;7.60;99.90;;;;;;4972054;28;20388;-48
2021/12/29 01:56:54;;;;;;;29.48;8.68;;;7.60;99.90;;;;;;4975572;28;20045;-49
2021/12/29 01:59:20;;;;;;;27.55;8.40;;;7.60;99.90;;;;;;4971520;28;20043;-49
2021/12/29 02:01:45;;;;;;;33.25;9.00;;;7.60;99.90;;;;;;4975672;28;20046;-50
2021/12/29 02:04:11;;;;;;;29.05;9.23;;;7.60;99.90;;;;;;4975498;28;20122;-49
2021/12/29 02:06:37;;;;;;;30.95;9.52;;;7.60;99.90;;;;;;4975555;28;20046;-49
2021/12/29 02:09:04;;;;;;;36.63;10.77;;;7.60;99.90;;;;;;4975575;28;20058;-49
2021/12/29 02:11:30;;;;;;;33.30;9.77;;;7.60;99.90;;;;;;4975045;28;20038;-49
2021/12/29 02:14:02;;;;;;;38.90;11.18;;;7.70;99.90;;;;;;4975264;28;20047;-49
2021/12/29 02:16:29;;;;;;;31.45;9.93;;;7.70;99.90;;;;;;4976070;28;20368;-49
2021/12/29 02:18:57;;;;;;;37.40;11.27;;;7.70;99.90;;;;;;4975101;28;20518;-48
2021/12/29 02:21:24;;;;;;;31.10;10.82;;;7.70;99.90;;;;;;4975108;28;20118;-49
2021/12/29 02:26:33;;;;;;;28.50;10.20;;;7.80;99.90;;;;;;4967071;28;20125;-48
2021/12/29 02:29:01;;;;;;;28.88;11.73;;;7.90;99.90;;;;;;4941405;28;20055;-49
2021/12/29 02:31:28;;;;;;;36.17;13.05;;;7.90;99.90;;;;;;4939858;28;20043;-47
2021/12/29 02:33:54;;;;;;;33.88;12.38;;;7.90;99.90;;;;;;4972405;28;20070;-49
2021/12/29 02:36:21;;;;;;;39.88;13.98;;;8.00;99.90;;;;;;4993940;28;20057;-50
2021/12/29 02:38:51;;;;;;;37.78;14.90;;;8.00;99.90;;;;;;4994193;28;20042;-49
2021/12/29 02:41:18;;;;;;;34.78;13.45;;;8.00;99.90;;;;;;4994231;28;20069;-51
2021/12/29 02:43:44;;;;;;;35.83;13.77;;;8.00;99.90;;;;;;4991629;28;20041;-49
2021/12/29 02:46:14;;;;;;;35.95;13.25;;;8.00;99.90;;;;;;4967736;28;20043;-51
2021/12/29 02:48:49;;;;;;;27.50;12.77;;;8.00;99.90;;;;;;4940828;28;20038;-50
2021/12/29 02:53:43;;;;;;;27.95;12.43;;;8.00;99.90;;;;;;4986179;28;20050;-49
2021/12/29 02:56:08;;;;;;;28.83;12.15;;;8.00;99.90;;;;;;4992256;28;20313;-48
2021/12/29 02:58:34;;;;;;;24.80;11.90;;;8.00;99.90;;;;;;4992999;28;20124;-49
2021/12/29 03:01:03;;;;;;;24.83;12.32;;;8.00;99.90;;;;;;4993062;28;20497;-51
2021/12/29 03:03:30;;;;;;;24.08;10.90;;;8.00;99.90;;;;;;4992718;28;20537;-50
2021/12/29 03:05:56;;;;;;;23.70;11.02;;;8.00;99.90;;;;;;4993341;28;20467;-50
2021/12/29 03:08:23;;;;;;;22.27;10.32;;;8.00;99.90;;;;;;4984530;28;20486;-53
2021/12/29 03:10:52;;;;;;;22.80;10.60;;;7.90;99.90;;;;;;4992831;28;20034;-48
2021/12/29 03:13:26;;;;;;;20.52;9.77;;;8.00;99.90;;;;;;4986984;28;20030;-51
2021/12/29 03:15:53;;;;;;;20.55;10.10;;;8.00;99.90;;;;;;4985912;28;20045;-49
2021/12/29 03:18:18;;;;;;;21.38;10.38;;;8.00;99.90;;;;;;4992591;28;20045;-49
2021/12/29 03:20:45;;;;;;;21.35;10.60;;;8.00;99.90;;;;;;4993193;28;20034;-51
2021/12/29 03:23:12;;;;;;;25.33;10.50;;;8.00;99.90;;;;;;4992872;28;20042;-52
2021/12/29 03:25:37;;;;;;;24.98;10.40;;;7.90;99.90;;;;;;4984129;28;20470;-50
2021/12/29 03:28:04;;;;;;;22.50;10.13;;;7.90;99.90;;;;;;4992908;28;20042;-49
2021/12/29 03:30:36;;;;;;;25.13;10.95;;;7.90;99.90;;;;;;4992622;28;20211;-50
2021/12/29 03:33:07;;;;;;;22.40;9.98;;;7.90;99.90;;;;;;4992312;28;20034;-51
2021/12/29 03:35:38;;;;;;;24.63;9.60;;;7.90;99.90;;;;;;4992990;28;20046;-48
2021/12/29 03:38:06;;;;;;;28.52;10.57;;;7.90;99.90;;;;;;4992802;28;20043;-52
2021/12/29 03:40:35;;;;;;;22.52;10.10;;;8.00;99.90;;;;;;4991941;28;20042;-51
2021/12/29 03:43:02;;;;;;;28.90;10.32;;;7.90;99.90;;;;;;4978324;28;20077;-50
2021/12/29 03:45:27;;;;;;;28.05;11.27;;;7.90;99.90;;;;;;4979373;28;20053;-49
2021/12/29 03:47:53;;;;;;;32.30;12.90;;;7.90;99.90;;;;;;4992616;28;20034;-51
2021/12/29 03:50:19;;;;;;;32.05;11.95;;;7.90;99.90;;;;;;4992651;28;20088;-49
2021/12/29 03:52:44;;;;;;;29.85;12.55;;;7.90;99.90;;;;;;4992500;28;20039;-53
2021/12/29 03:55:10;;;;;;;26.42;12.13;;;7.90;99.90;;;;;;4987401;28;20038;-52
2021/12/29 03:57:36;;;;;;;26.13;13.00;;;7.90;99.90;;;;;;4955554;28;20046;-51
2021/12/29 04:00:04;;;;;;;34.45;13.23;;;7.90;99.90;;;;;;4973832;28;20097;-50
2021/12/29 04:02:30;;;;;;;37.60;14.20;;;7.80;99.90;;;;;;4972488;28;20051;-48
2021/12/29 04:04:55;;;;;;;34.45;12.68;;;7.90;99.90;;;;;;4977431;28;20387;-51
2021/12/29 04:07:21;;;;;;;34.08;13.15;;;7.80;99.90;;;;;;4989186;28;20034;-52
2021/12/29 04:09:46;;;;;;;33.05;12.90;;;7.90;99.90;;;;;;4987121;28;20414;-54
2021/12/29 04:12:12;;;;;;;37.00;12.95;;;7.80;99.90;;;;;;4991049;28;20041;-53
2021/12/29 04:14:38;;;;;;;34.83;14.38;;;7.80;99.90;;;;;;4988813;28;20035;-53
2021/12/29 04:17:09;;;;;;;39.67;13.65;;;7.80;99.90;;;;;;4973480;28;20525;-52
2021/12/29 04:22:20;;;;;;;42.50;14.02;;;7.80;99.90;;;;;;4982924;28;20386;-52
2021/12/29 04:24:46;;;;;;;34.83;14.52;;;7.80;99.90;;;;;;4977493;28;20047;-53
2021/12/29 04:27:11;;;;;;;37.15;15.35;;;7.80;99.90;;;;;;4972682;28;20049;-53
2021/12/29 04:29:37;;;;;;;31.60;15.20;;;7.80;99.90;;;;;;4972757;28;20053;-52
2021/12/29 04:32:03;;;;;;;38.08;15.63;;;7.80;99.90;;;;;;4972526;28;20035;-53
2021/12/29 04:34:28;;;;;;;35.83;15.32;;;7.80;99.90;;;;;;4973926;28;20451;-52
2021/12/29 04:36:54;;;;;;;36.00;15.00;;;7.80;99.90;;;;;;4987627;28;20133;-54
2021/12/29 04:39:19;;;;;;;43.03;16.48;;;7.80;99.90;;;;;;4991666;28;20060;-52
2021/12/29 04:41:45;;;;;;;42.28;16.35;;;7.80;99.90;;;;;;4992026;28;20038;-53
2021/12/29 04:44:10;;;;;;;48.20;17.65;;;7.80;99.90;;;;;;4991973;28;20413;-52
2021/12/29 04:46:39;;;;;;;39.63;14.98;;;7.80;99.90;;;;;;4992007;28;20050;-52
2021/12/29 04:49:09;;;;;;;40.08;14.98;;;7.80;99.90;;;;;;4991236;28;20049;-51
2021/12/29 04:51:36;;;;;;;37.65;14.45;;;7.80;99.90;;;;;;4990736;28;20089;-52
2021/12/29 04:54:04;;;;;;;51.80;16.13;;;7.80;99.90;;;;;;4985401;28;20113;-52
2021/12/29 04:56:30;;;;;;;45.85;16.58;;;7.80;99.90;;;;;;4972326;28;20081;-53
2021/12/29 04:58:55;;;;;;;38.75;16.23;;;7.80;99.90;;;;;;4955128;28;20039;-53
2021/12/29 05:01:21;;;;;;;45.50;15.45;;;7.80;99.90;;;;;;4972398;28;20050;-52
2021/12/29 05:03:47;;;;;;;37.70;15.00;;;7.80;99.90;;;;;;4989108;28;20065;-50
2021/12/29 05:08:38;;;;;;;40.40;14.07;;;7.80;99.90;;;;;;4991233;28;20132;-54
2021/12/29 05:11:06;;;;;;;36.15;13.90;;;7.80;99.90;;;;;;4991619;28;20058;-52
2021/12/29 05:13:34;;;;;;;34.50;13.98;;;7.80;99.90;;;;;;4991191;28;20121;-52
2021/12/29 05:16:00;;;;;;;36.33;13.98;;;7.80;99.90;;;;;;4970939;28;20092;-51
2021/12/29 05:18:28;;;;;;;34.70;13.13;;;7.80;99.90;;;;;;4986732;28;20449;-52
2021/12/29 05:20:55;;;;;;;31.88;13.43;;;7.80;99.90;;;;;;4991386;28;20402;-50
2021/12/29 05:23:21;;;;;;;36.60;13.48;;;7.80;99.90;;;;;;4992503;28;20534;-53
2021/12/29 05:25:47;;;;;;;37.40;13.15;;;7.80;99.90;;;;;;4988489;28;20046;-50
2021/12/29 05:28:13;;;;;;;35.38;13.73;;;7.80;99.90;;;;;;4995387;28;20041;-54
2021/12/29 05:30:39;;;;;;;31.08;13.93;;;7.80;99.90;;;;;;4994924;28;20037;-48
2021/12/29 05:33:05;;;;;;;39.03;14.85;;;7.80;99.90;;;;;;4995023;28;20038;-49
2021/12/29 05:35:31;;;;;;;41.78;14.35;;;7.80;99.90;;;;;;4994977;28;20531;-52
2021/12/29 05:37:57;;;;;;;33.08;13.52;;;7.90;99.90;;;;;;4994234;28;20050;-49
2021/12/29 05:40:24;;;;;;;39.65;13.25;;;7.90;99.90;;;;;;4991317;28;20053;-52
2021/12/29 05:42:50;;;;;;;37.35;12.48;;;7.90;99.90;;;;;;4994752;28;20054;-48
2021/12/29 05:45:16;;;;;;;31.85;12.05;;;7.90;99.90;;;;;;4987067;28;20097;-49
2021/12/29 05:47:43;;;;;;;33.00;12.32;;;7.90;99.90;;;;;;4994571;28;20041;-49
2021/12/29 05:50:12;;;;;;;36.78;12.68;;;7.90;99.90;;;;;;4981847;28;20034;-51
2021/12/29 05:52:38;;;;;;;35.40;13.02;;;7.90;99.90;;;;;;4994389;28;20034;-49
2021/12/29 05:55:05;;;;;;;34.70;12.57;;;7.90;99.90;;;;;;4994019;28;20072;-51
2021/12/29 05:57:31;;;;;;;39.35;12.35;;;7.90;99.90;;;;;;4992944;28;20042;-49
2021/12/29 05:59:57;;;;;;;37.30;12.95;;;7.90;99.90;;;;;;4975344;28;20046;-48
2021/12/29 06:02:22;;;;;;;41.05;12.73;;;7.90;99.90;;;;;;4974964;28;20428;-49
2021/12/29 06:04:48;;;;;;;32.78;11.80;;;7.90;99.90;;;;;;4974939;28;20043;-48
2021/12/29 06:07:13;;;;;;;38.83;13.18;;;7.90;99.90;;;;;;4975303;28;20046;-50
2021/12/29 06:09:40;;;;;;;46.30;13.32;;;7.90;99.90;;;;;;4984531;28;20549;-48
2021/12/29 06:12:06;;;;;;;31.67;12.60;;;7.90;99.90;;;;;;4994390;28;20137;-52
2021/12/29 06:14:31;;;;;;;43.08;13.23;;;7.90;99.90;;;;;;4992109;28;20060;-51
2021/12/29 06:16:57;;;;;;;46.47;13.80;;;7.90;99.90;;;;;;4974956;28;20470;-52
2021/12/29 06:19:22;;;;;;;41.30;13.20;;;8.00;99.90;;;;;;4974754;28;20121;-54
2021/12/29 06:21:48;;;;;;;42.08;12.63;;;7.90;99.90;;;;;;4975208;28;20041;-52
2021/12/29 06:24:14;;;;;;;42.35;12.98;;;7.90;99.90;;;;;;4994228;28;20042;-53
2021/12/29 06:26:39;;;;;;;38.97;13.05;;;8.00;99.90;;;;;;4994514;28;20129;-49
2021/12/29 06:29:05;;;;;;;38.13;13.18;;;8.00;99.90;;;;;;4994368;28;20100;-51
2021/12/29 06:31:32;;;;;;;44.88;12.73;;;8.00;99.90;;;;;;4991837;28;20129;-52
2021/12/29 06:33:59;;;;;;;31.23;10.35;;;8.00;99.90;;;;;;4973009;28;20057;-52
2021/12/29 06:36:24;;;;;;;38.15;11.70;;;8.00;99.90;;;;;;4994115;28;20068;-52
2021/12/29 06:38:50;;;;;;;32.08;10.80;;;8.00;99.90;;;;;;4983779;28;20497;-50
2021/12/29 06:41:16;;;;;;;32.35;11.38;;;8.00;99.90;;;;;;4967369;28;20042;-52
2021/12/29 06:43:41;;;;;;;35.08;12.02;;;8.00;99.90;;;;;;4970189;28;20034;-52
2021/12/29 06:46:07;;;;;;;38.08;11.45;;;8.00;99.90;;;;;;4993690;28;20118;-51
2021/12/29 06:48:33;;;;;;;39.42;11.10;;;7.90;99.90;;;;;;4991337;28;20142;-52
2021/12/29 06:50:58;;;;;;;34.42;11.40;;;8.00;99.90;;;;;;4974431;28;20039;-49
2021/12/29 06:53:25;;;;;;;33.58;11.48;;;8.00;99.90;;;;;;4990874;28;20120;-49
2021/12/29 06:55:51;;;;;;;43.75;12.43;;;8.00;99.90;;;;;;4993836;28;20046;-52
2021/12/29 06:58:16;;;;;;;30.88;11.05;;;8.00;99.90;;;;;;4993560;28;20518;-52
2021/12/29 07:00:42;;;;;;;46.20;12.27;;;8.00;99.90;;;;;;4993516;28;20053;-52
2021/12/29 07:03:07;;;;;;;38.08;11.52;;;8.00;99.90;;;;;;4993126;28;20042;-53
2021/12/29 07:05:33;;;;;;;49.80;11.93;;;8.00;99.90;;;;;;4992178;28;20058;-48
2021/12/29 07:07:59;;;;;;;36.47;12.70;;;8.00;99.90;;;;;;4993521;28;20045;-51
2021/12/29 07:10:24;;;;;;;39.08;12.55;;;8.00;99.90;;;;;;4990289;28;20430;-52
2021/12/29 07:12:50;;;;;;;36.85;11.63;;;8.00;99.90;;;;;;4974788;28;20058;-51
2021/12/29 07:15:16;;;;;;;39.28;12.10;;;8.00;99.90;;;;;;4973830;28;20078;-53
2021/12/29 07:17:42;;;;;;;41.88;12.75;;;8.00;99.90;;;;;;4973735;28;20039;-53
2021/12/29 07:20:08;;;;;;;44.05;12.18;;;8.00;99.90;;;;;;4974499;28;20574;-52
2021/12/29 07:22:34;;;;;;;39.47;12.90;;;8.00;99.90;;;;;;4979659;28;20054;-49
2021/12/29 07:24:59;;;;;;;32.08;11.10;;;8.00;99.90;;;;;;4978866;28;20145;-55
2021/12/29 07:27:25;;;;;;;32.58;11.35;;;8.00;99.90;;;;;;4981704;28;20031;-50
2021/12/29 07:29:52;;;;;;;34.28;10.93;;;8.00;99.90;;;;;;4991877;28;20034;-51
2021/12/29 07:32:18;;;;;;;33.20;10.65;;;8.10;99.90;;;;;;4992498;28;20057;-52
2021/12/29 07:34:43;;;;;;;36.00;10.63;;;8.10;99.90;;;;;;4993141;28;20101;-51
2021/12/29 07:37:11;;;;;;;35.60;10.48;;;8.10;99.90;;;;;;4988033;28;20042;-51
2021/12/29 07:39:36;;;;;;;33.38;10.80;;;8.10;99.90;;;;;;4984173;28;20107;-51
2021/12/29 07:42:02;;;;;;;34.05;10.10;;;8.10;99.90;;;;;;4986537;28;20038;-50
2021/12/29 07:44:28;;;;;;;33.75;10.55;;;8.10;99.90;;;;;;4978785;28;20042;-50
2021/12/29 07:46:55;;;;;;;30.30;9.32;;;8.10;99.90;;;;;;4958831;28;20129;-51
2021/12/29 07:49:22;;;;;;;30.52;9.70;;;8.20;99.90;;;;;;4980341;28;20043;-50
2021/12/29 07:51:48;;;;;;;32.08;9.52;;;8.10;99.90;;;;;;4977000;28;20046;-51
2021/12/29 07:54:14;;;;;;;27.77;9.43;;;8.10;99.90;;;;;;4973504;28;20073;-53
2021/12/29 07:56:41;;;;;;;32.33;9.20;;;8.10;99.90;;;;;;4976321;28;20089;-53
2021/12/29 07:59:07;;;;;;;25.60;9.10;;;8.10;99.90;;;;;;4973187;28;20046;-52
2021/12/29 08:01:33;;;;;;;18.50;7.53;;;8.10;99.90;;;;;;4978633;28;20041;-52
2021/12/29 08:03:59;;;;;;;25.20;8.30;;;8.10;99.90;;;;;;4973133;28;20035;-49
2021/12/29 08:06:25;;;;;;;21.73;8.32;;;8.20;99.90;;;;;;4989715;28;20038;-52
2021/12/29 08:08:50;;;;;;;24.30;8.90;;;8.10;99.90;;;;;;4989761;28;20105;-48
2021/12/29 08:11:18;;;;;;;26.90;8.68;;;8.10;99.90;;;;;;4992167;28;20039;-54
2021/12/29 08:13:44;;;;;;;31.27;9.55;;;8.10;99.90;;;;;;4985695;28;20043;-53
2021/12/29 08:16:10;;;;;;;30.40;9.90;;;8.10;99.90;;;;;;4974758;28;20092;-52
2021/12/29 08:18:35;;;;;;;38.95;10.43;;;8.10;99.90;;;;;;4992501;28;20477;-49
2021/12/29 08:21:01;;;;;;;32.60;9.70;;;8.10;99.90;;;;;;4981009;28;20551;-51
2021/12/29 08:23:26;;;;;;;33.67;10.63;;;8.10;99.90;;;;;;4980947;28;20052;-50
2021/12/29 08:25:52;;;;;;;38.92;11.10;;;8.20;99.90;;;;;;4986870;28;20398;-53
2021/12/29 08:28:18;;;;;;;34.30;11.38;;;8.20;99.90;;;;;;4985393;28;20069;-52
2021/12/29 08:30:43;;;;;;;44.13;11.55;;;8.20;99.90;;;;;;4988002;28;20093;-50
2021/12/29 08:33:09;;;;;;;36.35;10.43;;;8.20;99.90;;;;;;4972640;28;20039;-49
2021/12/29 08:35:35;;;;;;;27.20;10.30;;;8.20;99.90;;;;;;4972918;28;20045;-53
2021/12/29 08:38:01;;;;;;;29.45;10.05;;;8.20;99.90;;;;;;4972812;28;20065;-52
2021/12/29 08:40:26;;;;;;;46.60;11.15;;;8.10;99.90;;;;;;4972778;28;20506;-53
2021/12/29 08:42:54;;;;;;;32.75;10.77;;;8.20;99.90;;;;;;4972367;28;20122;-52
2021/12/29 08:45:22;;;;;;;51.20;11.18;;;8.20;99.90;;;;;;4989339;28;20043;-52
2021/12/29 08:47:48;;;;;;;35.17;10.55;;;8.20;99.90;;;;;;4991422;28;20047;-48
2021/12/29 08:50:16;;;;;;;42.83;10.15;;;8.20;99.90;;;;;;4992387;28;20383;-49
2021/12/29 08:52:42;;;;;;;35.15;10.43;;;8.20;99.90;;;;;;5065729;22;20414;-53
2021/12/29 08:55:10;;;;;;;42.28;11.93;;;8.20;99.90;;;;;;4989500;28;20074;-52
2021/12/29 08:57:35;;;;;;;32.40;11.20;;;8.30;99.90;;;;;;4987583;28;20042;-53
2021/12/29 09:00:05;;;;;;;32.83;10.93;;;8.30;99.90;;;;;;4972738;28;20038;-52
2021/12/29 09:02:31;;;;;;;31.92;10.52;;;8.30;99.90;;;;;;4971941;28;20054;-50
2021/12/29 09:04:56;;;;;;;35.13;10.95;;;8.30;99.90;;;;;;4971224;28;20042;-53
2021/12/29 09:07:22;;;;;;;30.42;10.60;;;8.40;99.90;;;;;;4976394;28;20438;-53
2021/12/29 09:09:47;;;;;;;40.22;10.82;;;8.40;99.90;;;;;;4975769;28;20039;-51
2021/12/29 09:12:13;;;;;;;34.17;10.38;;;8.40;99.90;;;;;;4975143;28;20110;-50
2021/12/29 09:14:39;;;;;;;33.65;11.32;;;8.40;99.90;;;;;;4968159;28;20082;-52
2021/12/29 09:17:04;;;;;;;31.38;11.05;;;8.30;99.90;;;;;;4975800;28;20465;-52
2021/12/29 09:19:33;;;;;;;31.08;10.55;;;8.40;99.90;;;;;;4976019;28;20043;-53
2021/12/29 09:21:59;;;;;;;27.77;10.50;;;8.40;99.90;;;;;;4975608;28;20514;-50
2021/12/29 09:24:25;;;;;;;33.80;10.73;;;8.40;99.90;;;;;;4958292;28;20086;-49
2021/12/29 09:26:51;;;;;;;34.67;10.68;;;8.40;99.90;;;;;;4942255;28;20081;-50
2021/12/29 09:29:17;;;;;;;23.33;10.63;;;8.40;99.90;;;;;;4976073;28;20042;-52
2021/12/29 09:31:42;;;;;;;27.58;9.63;;;8.40;99.90;;;;;;4972840;28;20085;-53
2021/12/29 09:34:08;;;;;;;28.63;10.75;;;8.40;99.90;;;;;;4975469;28;20070;-52
2021/12/29 09:36:34;;;;;;;30.98;9.75;;;8.40;99.90;;;;;;4976036;28;20039;-48
2021/12/29 09:39:00;;;;;;;29.75;9.88;;;8.40;99.90;;;;;;4975386;28;20410;-53
2021/12/29 09:41:26;;;;;;;29.98;9.95;;;8.40;99.90;;;;;;4974436;28;20054;-53
2021/12/29 09:43:52;;;;;;;31.20;9.52;;;8.40;99.90;;;;;;4975332;28;20467;-53
2021/12/29 09:46:19;;;;;;;27.77;9.57;;;8.50;99.90;;;;;;4957802;28;20038;-49
2021/12/29 09:48:45;;;;;;;24.15;9.88;;;8.40;99.90;;;;;;4975444;28;20550;-53
2021/12/29 09:51:12;;;;;;;26.60;10.23;;;8.50;99.90;;;;;;4975010;28;20043;-52
2021/12/29 09:53:38;;;;;;;23.63;9.43;;;8.50;99.90;;;;;;4957387;28;20039;-49
2021/12/29 09:56:04;;;;;;;24.73;9.65;;;8.50;99.90;;;;;;4970016;28;20052;-54
2021/12/29 09:58:30;;;;;;;31.10;9.80;;;8.50;99.90;;;;;;4973013;28;20038;-53
2021/12/29 10:00:59;;;;;;;21.60;9.00;;;8.50;99.90;;;;;;4975072;28;20268;-53
2021/12/29 10:03:26;;;;;;;25.48;9.45;;;8.60;99.90;;;;;;4975033;28;20402;-52
2021/12/29 10:06:00;;;;;;;20.25;8.63;;;8.60;99.90;;;;;;4974666;28;20503;-52
2021/12/29 10:08:36;;;;;;;28.70;9.15;;;8.50;99.90;;;;;;4974316;28;20506;-53
2021/12/29 10:11:11;;;;;;;26.90;8.00;;;8.60;99.90;;;;;;4974748;28;20047;-52
2021/12/29 10:13:41;;;;;;;22.98;7.35;;;8.60;99.90;;;;;;4957462;28;20051;-49
2021/12/29 10:16:12;;;;;;;26.30;8.07;;;8.60;99.90;;;;;;4957208;28;20074;-53
2021/12/29 10:18:41;;;;;;;21.88;7.60;;;8.60;99.90;;;;;;4974400;28;20038;-51
2021/12/29 10:21:13;;;;;;;28.35;7.53;;;8.50;99.90;;;;;;4974736;28;20122;-48
2021/12/29 10:23:42;;;;;;;31.63;7.65;;;8.60;99.90;;;;;;4974517;28;20053;-53
2021/12/29 10:26:16;;;;;;;20.98;7.22;;;8.50;99.90;;;;;;4973857;28;20173;-51
2021/12/29 10:28:52;;;;;;;26.45;7.53;;;8.50;99.90;;;;;;4923767;29;20067;-52
2021/12/29 10:31:22;;;;;;;30.95;7.63;;;8.60;99.90;;;;;;4962128;28;20093;-52
2021/12/29 10:33:55;;;;;;;35.15;7.80;;;8.60;99.90;;;;;;4974000;28;20034;-50
2021/12/29 10:36:31;;;;;;;32.08;8.32;;;8.50;99.90;;;;;;4958335;28;20414;-53
2021/12/29 10:39:17;;;;;;;24.33;7.50;;;8.60;99.90;;;;;;4971286;28;20050;-51
2021/12/29 10:42:14;;;;;;;32.83;7.80;;;8.60;99.90;;;;;;4966515;28;20426;-53
2021/12/29 10:44:46;;;;;;;23.77;7.65;;;8.60;99.90;;;;;;4940990;28;20042;-52
2021/12/29 10:47:19;;;;;;;45.17;8.73;;;8.60;99.90;;;;;;4972324;28;20093;-51
2021/12/29 10:49:54;;;;;;;33.15;8.23;;;8.70;99.90;;;;;;4969277;28;20066;-53
2021/12/29 10:52:44;;;;;;;28.88;8.75;;;8.70;99.90;;;;;;4973341;28;20812;-52
2021/12/29 10:55:31;;;;;;;23.98;7.80;;;8.70;99.90;;;;;;4973256;28;20057;-52
2021/12/29 10:58:14;;;;;;;29.50;8.63;;;8.80;99.90;;;;;;4955216;29;20096;-52
2021/12/29 11:04:03;;;;;;;27.80;7.78;;;8.80;99.90;;;;;;5001985;22;19968;-49
2021/12/29 11:06:28;;;;;;;26.85;7.55;;;8.80;99.90;;;;;;4993543;28;20097;-48
2021/12/29 11:08:59;;;;;;;28.58;8.02;;;8.80;99.90;;;;;;4993148;28;20441;-48
2021/12/29 11:11:35;;;;;;;33.17;8.30;;;8.80;99.90;;;;;;4993106;28;20034;-51
2021/12/29 11:14:14;;;;;;;27.70;8.25;;;8.90;99.90;;;;;;4973998;28;20051;-48
2021/12/29 11:16:41;;;;;;;23.33;7.55;;;8.90;99.90;;;;;;4974007;28;20556;-47
2021/12/29 11:19:07;;;;;;;32.60;7.55;;;8.90;99.90;;;;;;4983443;28;20153;-48
2021/12/29 11:21:41;;;;;;;26.70;7.15;;;8.90;99.90;;;;;;4990370;28;20054;-48
2021/12/29 11:24:13;;;;;;;26.55;7.90;;;8.90;99.90;;;;;;4992860;28;20544;-50
2021/12/29 11:26:38;;;;;;;27.23;7.13;;;8.90;99.90;;;;;;4990377;28;20134;-49
2021/12/29 11:29:08;;;;;;;29.05;7.85;;;8.90;99.90;;;;;;4993098;28;20053;-48
2021/12/29 11:31:41;;;;;;;37.53;9.43;;;8.90;99.90;;;;;;4993005;28;20133;-48
2021/12/29 11:34:24;;;;;;;34.38;13.27;;;8.90;99.90;;;;;;4991772;28;20038;-49
2021/12/29 11:37:11;;;;;;;33.88;11.60;;;8.90;99.90;;;;;;4974943;28;20406;-48
2021/12/29 11:39:47;;;;;;;32.85;10.38;;;8.90;99.90;;;;;;4992483;28;20040;-51
2021/12/29 11:42:15;;;;;;;32.20;10.65;;;8.90;99.90;;;;;;4990931;28;20040;-49
2021/12/29 11:44:41;;;;;;;32.90;9.70;;;8.90;99.90;;;;;;4992784;28;20050;-48
2021/12/29 11:47:08;;;;;;;33.65;9.32;;;9.00;99.90;;;;;;4993059;28;20038;-48
2021/12/29 11:49:34;;;;;;;37.65;10.25;;;8.90;99.90;;;;;;4992668;28;20126;-49
2021/12/29 11:52:08;;;;;;;31.38;10.60;;;8.90;99.90;;;;;;4992327;28;20473;-49
2021/12/29 11:55:02;;;;;;;35.53;11.20;;;8.90;99.90;;;;;;4991705;28;20049;-52
2021/12/29 11:57:30;;;;;;;34.75;10.45;;;8.90;99.90;;;;;;4985061;28;20058;-50
2021/12/29 12:00:21;;;;;;;32.00;9.00;;;8.90;99.90;;;;;;4990865;28;20136;-50
2021/12/29 12:02:50;;;;;;;31.35;9.55;;;8.90;99.90;;;;;;4965586;28;20042;-48
2021/12/29 12:05:19;;;;;;;30.08;8.98;;;8.90;99.90;;;;;;4965978;28;20507;-50
2021/12/29 12:07:46;;;;;;;39.92;8.90;;;8.90;99.90;;;;;;4981145;28;20513;-48
2021/12/29 12:10:24;;;;;;;31.67;9.95;;;9.00;99.90;;;;;;4989298;28;20041;-49
2021/12/29 12:12:53;;;;;;;29.15;9.20;;;8.90;99.90;;;;;;4987443;28;20036;-50
2021/12/29 12:15:29;;;;;;;31.50;9.88;;;8.90;99.90;;;;;;4976966;28;20402;-48
2021/12/29 12:17:55;;;;;;;31.20;9.98;;;8.90;99.90;;;;;;4973403;28;20491;-50
2021/12/29 12:20:21;;;;;;;32.67;9.98;;;8.90;99.90;;;;;;4973459;28;20074;-51
2021/12/29 12:22:52;;;;;;;40.85;11.27;;;8.90;99.90;;;;;;4989436;28;20560;-49
2021/12/29 12:25:28;;;;;;;30.23;10.88;;;8.90;99.90;;;;;;4948653;28;20050;-49
2021/12/29 12:28:00;;;;;;;31.77;9.60;;;9.00;99.90;;;;;;4987412;28;20041;-50
2021/12/29 12:30:43;;;;;;;39.72;11.27;;;9.00;99.90;;;;;;4989507;28;20428;-53
2021/12/29 12:33:11;;;;;;;25.63;10.57;;;8.90;99.90;;;;;;4963474;28;20742;-49
2021/12/29 12:35:42;;;;;;;30.58;10.50;;;9.00;99.90;;;;;;4973567;28;20042;-50
2021/12/29 12:38:13;;;;;;;34.70;11.02;;;9.00;99.90;;;;;;4969612;28;20255;-49
2021/12/29 12:40:41;;;;;;;25.40;10.43;;;8.90;99.90;;;;;;4940896;28;20042;-52
2021/12/29 12:43:17;;;;;;;37.95;11.27;;;8.90;99.90;;;;;;4971398;28;20050;-49
2021/12/29 12:45:45;;;;;;;27.88;10.93;;;8.90;99.90;;;;;;4979778;28;20038;-50
2021/12/29 12:48:22;;;;;;;25.45;10.85;;;8.90;99.90;;;;;;5002478;28;20398;-50
2021/12/29 12:50:48;;;;;;;31.63;12.65;;;9.00;99.90;;;;;;4994773;28;20097;-49
2021/12/29 12:53:16;;;;;;;30.50;12.23;;;8.90;99.90;;;;;;4997687;28;20390;-49
2021/12/29 12:55:50;;;;;;;32.65;11.63;;;8.90;99.90;;;;;;4955176;28;20053;-49
2021/12/29 12:58:17;;;;;;;37.22;13.43;;;8.90;99.90;;;;;;4981690;28;20105;-49